This demonstration page uses our WeatherBlox Daily Observations layout. Learn more.

Hourly Observations for May 9, 2018

Temp ( °F °C ) Dew Point ( °F °C ) Humidity (%) Winds ( mph kmh ) Pressure ( in mb ) Visibility ( mi km ) Precip ( " mm )
2:54 am 02:54 Clear 66 18.9 52 11.1 61 61 NW 8 13 29.76 1008 10 16.0934 0 0
3:54 am 03:54 Clear 64 17.8 52 11.1 65 65 WNW 3 6 29.77 1008 10 16.0934 0 0
4:54 am 04:54 Clear 63 17.2 51 10.6 65 65 NW 10 17 29.79 1009 10 16.0934 0 0
5:54 am 05:54 Clear 62 16.7 52 11.1 70 70 WNW 10 17 29.8 1009 10 16.0934 0 0
6:54 am 06:54 Sunny 61 16.1 53 11.7 75 75 NW 9 15 29.81 1010 10 16.0934 0 0
7:54 am 07:54 Sunny 63 17.2 54 12.2 73 73 NW 13 20 29.83 1010 10 16.0934 0 0
8:54 am 08:54 Sunny 67 19.4 55 12.8 66 66 NW 14 22 29.84 1011 10 16.0934 0 0
9:54 am 09:54 Mostly Sunny 70 21.1 54 12.2 57 57 NW 16 26 29.84 1011 10 16.0934 0 0
10:54 am 10:54 Sunny 72 22.2 54 12.2 53 53 NW 13 20 29.85 1011 10 16.0934 0 0
11:54 am 11:54 Sunny 76 24.4 52 11.1 43 43 NW 20 31 29.85 1011 10 16.0934 0 0
12:54 pm 12:54 Sunny 80 26.7 49 9.4 34 34 WNW 22 35 29.83 1010 10 16.0934 0 0
1:54 pm 13:54 Sunny 83 28.3 49 9.4 31 31 NW 21 33 29.82 1010 10 16.0934 0 0
2:54 pm 14:54 Sunny 84 28.9 46 7.8 27 27 NW 16 26 29.81 1010 10 16.0934 0 0
3:54 pm 15:54 Sunny 84 28.9 46 7.8 27 27 NW 21 33 29.81 1009 10 16.0934 0 0
4:54 pm 16:54 Mostly Sunny 86 30 46 7.8 25 25 WNW 21 33 29.8 1009 10 16.0934 0 0
5:54 pm 17:54 Mostly Sunny 83 28.3 47 8.3 28 28 NW 12 19 29.8 1009 10 16.0934 0 0
6:54 pm 18:54 Sunny 84 28.9 47 8.3 27 27 NW 12 19 29.8 1009 10 16.0934 0 0
7:54 pm 19:54 Sunny 81 27.2 46 7.8 29 29 NW 9 15 29.81 1009 10 16.0934 0 0
8:54 pm 20:54 Clear 77 25 44 6.7 31 31 NW 6 9 29.83 1010 10 16.0934 0 0
9:54 pm 21:54 Clear 65 18.3 45 7.2 49 49 Calm 29.85 1011 10 16.0934 0 0
10:54 pm 22:54 Clear 63 17.2 46 7.8 54 54 Calm 29.87 1012 10 16.0934 0 0

Powered by AerisWeather